sensor_id;sensor_type;location;lat;lon;timestamp;P1;durP1;ratioP1;P2;durP2;ratioP2
27566;SDS011;15006;48.584;9.186;2022-11-15T00:00:47;5.55;;;5.15;;
27566;SDS011;15006;48.584;9.186;2022-11-15T00:03:14;5.20;;;4.90;;
27566;SDS011;15006;48.584;9.186;2022-11-15T00:05:42;5.47;;;5.07;;
27566;SDS011;15006;48.584;9.186;2022-11-15T00:08:08;6.20;;;5.45;;
27566;SDS011;15006;48.584;9.186;2022-11-15T00:10:35;6.03;;;5.53;;
27566;SDS011;15006;48.584;9.186;2022-11-15T00:13:05;6.40;;;5.78;;
27566;SDS011;15006;48.584;9.186;2022-11-15T00:15:37;6.18;;;5.68;;
27566;SDS011;15006;48.584;9.186;2022-11-15T00:18:05;5.90;;;5.40;;
27566;SDS011;15006;48.584;9.186;2022-11-15T00:20:35;4.85;;;4.47;;
27566;SDS011;15006;48.584;9.186;2022-11-15T00:23:02;4.95;;;4.63;;
27566;SDS011;15006;48.584;9.186;2022-11-15T00:25:29;4.78;;;4.47;;
27566;SDS011;15006;48.584;9.186;2022-11-15T00:27:56;4.55;;;4.25;;
27566;SDS011;15006;48.584;9.186;2022-11-15T00:30:24;7.10;;;4.55;;
27566;SDS011;15006;48.584;9.186;2022-11-15T00:32:50;4.03;;;3.72;;
27566;SDS011;15006;48.584;9.186;2022-11-15T00:35:16;5.43;;;4.25;;
27566;SDS011;15006;48.584;9.186;2022-11-15T00:37:43;5.22;;;4.60;;
27566;SDS011;15006;48.584;9.186;2022-11-15T00:40:09;4.50;;;4.10;;
27566;SDS011;15006;48.584;9.186;2022-11-15T00:42:38;5.10;;;4.70;;
27566;SDS011;15006;48.584;9.186;2022-11-15T00:45:04;4.47;;;3.92;;
27566;SDS011;15006;48.584;9.186;2022-11-15T00:47:31;4.63;;;4.32;;
27566;SDS011;15006;48.584;9.186;2022-11-15T00:49:57;4.65;;;3.70;;
27566;SDS011;15006;48.584;9.186;2022-11-15T00:52:23;8.50;;;3.75;;
27566;SDS011;15006;48.584;9.186;2022-11-15T00:54:49;4.28;;;3.97;;
27566;SDS011;15006;48.584;9.186;2022-11-15T00:57:15;4.47;;;4.07;;
27566;SDS011;15006;48.584;9.186;2022-11-15T00:59:41;4.00;;;3.58;;
27566;SDS011;15006;48.584;9.186;2022-11-15T01:02:07;4.05;;;3.85;;
27566;SDS011;15006;48.584;9.186;2022-11-15T01:04:33;4.72;;;4.40;;
27566;SDS011;15006;48.584;9.186;2022-11-15T01:06:59;5.40;;;3.72;;
27566;SDS011;15006;48.584;9.186;2022-11-15T01:09:25;4.07;;;3.75;;
27566;SDS011;15006;48.584;9.186;2022-11-15T01:11:51;5.43;;;4.00;;
27566;SDS011;15006;48.584;9.186;2022-11-15T01:14:18;3.65;;;3.35;;
27566;SDS011;15006;48.584;9.186;2022-11-15T01:16:43;5.05;;;3.50;;
27566;SDS011;15006;48.584;9.186;2022-11-15T01:19:09;3.42;;;3.22;;
27566;SDS011;15006;48.584;9.186;2022-11-15T01:21:35;3.60;;;3.40;;
27566;SDS011;15006;48.584;9.186;2022-11-15T01:24:01;3.47;;;3.17;;
27566;SDS011;15006;48.584;9.186;2022-11-15T01:26:28;4.10;;;3.28;;
27566;SDS011;15006;48.584;9.186;2022-11-15T01:28:54;3.17;;;2.90;;
27566;SDS011;15006;48.584;9.186;2022-11-15T01:31:20;3.63;;;3.33;;
27566;SDS011;15006;48.584;9.186;2022-11-15T01:33:47;3.83;;;2.78;;
27566;SDS011;15006;48.584;9.186;2022-11-15T01:36:15;3.90;;;2.95;;
27566;SDS011;15006;48.584;9.186;2022-11-15T01:38:44;2.95;;;2.75;;
27566;SDS011;15006;48.584;9.186;2022-11-15T01:41:14;3.50;;;3.20;;
27566;SDS011;15006;48.584;9.186;2022-11-15T01:43:42;3.28;;;3.08;;
27566;SDS011;15006;48.584;9.186;2022-11-15T01:46:18;3.25;;;2.80;;
27566;SDS011;15006;48.584;9.186;2022-11-15T01:49:03;2.55;;;2.35;;
27566;SDS011;15006;48.584;9.186;2022-11-15T01:51:37;3.15;;;2.90;;
27566;SDS011;15006;48.584;9.186;2022-11-15T01:54:04;2.88;;;2.67;;
27566;SDS011;15006;48.584;9.186;2022-11-15T01:56:38;2.80;;;2.60;;
27566;SDS011;15006;48.584;9.186;2022-11-15T01:59:14;2.78;;;2.58;;
27566;SDS011;15006;48.584;9.186;2022-11-15T02:01:41;2.90;;;2.70;;
27566;SDS011;15006;48.584;9.186;2022-11-15T02:04:28;2.33;;;2.22;;
27566;SDS011;15006;48.584;9.186;2022-11-15T02:06:59;2.70;;;1.73;;
27566;SDS011;15006;48.584;9.186;2022-11-15T02:09:29;2.72;;;2.53;;
27566;SDS011;15006;48.584;9.186;2022-11-15T02:11:55;2.25;;;2.15;;
27566;SDS011;15006;48.584;9.186;2022-11-15T02:14:21;3.25;;;2.22;;
27566;SDS011;15006;48.584;9.186;2022-11-15T02:19:28;5.70;;;1.92;;
27566;SDS011;15006;48.584;9.186;2022-11-15T02:32:54;3.63;;;2.17;;
27566;SDS011;15006;48.584;9.186;2022-11-15T02:38:17;3.05;;;2.30;;
27566;SDS011;15006;48.584;9.186;2022-11-15T02:41:23;2.65;;;2.55;;
27566;SDS011;15006;48.584;9.186;2022-11-15T02:44:01;2.90;;;2.70;;
27566;SDS011;15006;48.584;9.186;2022-11-15T02:49:31;3.35;;;3.03;;
27566;SDS011;15006;48.584;9.186;2022-11-15T02:52:00;6.10;;;3.05;;
27566;SDS011;15006;48.584;9.186;2022-11-15T02:54:29;3.30;;;3.10;;
27566;SDS011;15006;48.584;9.186;2022-11-15T03:02:34;2.95;;;2.75;;
27566;SDS011;15006;48.584;9.186;2022-11-15T03:13:37;2.40;;;2.30;;
27566;SDS011;15006;48.584;9.186;2022-11-15T03:21:59;4.35;;;4.05;;
27566;SDS011;15006;48.584;9.186;2022-11-15T03:24:31;5.63;;;4.20;;
27566;SDS011;15006;48.584;9.186;2022-11-15T03:27:01;7.25;;;5.90;;
27566;SDS011;15006;48.584;9.186;2022-11-15T03:29:35;7.03;;;5.90;;
27566;SDS011;15006;48.584;9.186;2022-11-15T03:32:11;7.07;;;6.45;;
27566;SDS011;15006;48.584;9.186;2022-11-15T03:37:32;7.18;;;6.32;;
27566;SDS011;15006;48.584;9.186;2022-11-15T03:39:59;6.68;;;6.18;;
27566;SDS011;15006;48.584;9.186;2022-11-15T03:42:30;6.30;;;5.63;;
27566;SDS011;15006;48.584;9.186;2022-11-15T03:45:41;5.57;;;5.18;;
27566;SDS011;15006;48.584;9.186;2022-11-15T03:50:49;4.72;;;4.40;;
27566;SDS011;15006;48.584;9.186;2022-11-15T03:53:16;5.10;;;4.45;;
27566;SDS011;15006;48.584;9.186;2022-11-15T03:55:42;4.60;;;4.30;;
27566;SDS011;15006;48.584;9.186;2022-11-15T03:58:08;4.72;;;4.25;;
27566;SDS011;15006;48.584;9.186;2022-11-15T04:00:34;5.07;;;4.60;;
27566;SDS011;15006;48.584;9.186;2022-11-15T04:03:00;6.78;;;3.97;;
27566;SDS011;15006;48.584;9.186;2022-11-15T04:05:26;5.63;;;4.30;;
27566;SDS011;15006;48.584;9.186;2022-11-15T04:07:52;4.40;;;4.10;;
27566;SDS011;15006;48.584;9.186;2022-11-15T04:10:18;4.68;;;4.18;;
27566;SDS011;15006;48.584;9.186;2022-11-15T04:12:45;4.20;;;3.90;;
27566;SDS011;15006;48.584;9.186;2022-11-15T04:15:14;5.47;;;3.80;;
27566;SDS011;15006;48.584;9.186;2022-11-15T04:17:55;4.15;;;3.35;;
27566;SDS011;15006;48.584;9.186;2022-11-15T04:20:23;3.30;;;3.00;;
27566;SDS011;15006;48.584;9.186;2022-11-15T04:23:17;3.97;;;3.45;;
27566;SDS011;15006;48.584;9.186;2022-11-15T04:26:05;3.53;;;3.22;;
27566;SDS011;15006;48.584;9.186;2022-11-15T04:28:35;3.00;;;2.80;;
27566;SDS011;15006;48.584;9.186;2022-11-15T04:31:21;3.90;;;3.15;;
27566;SDS011;15006;48.584;9.186;2022-11-15T04:33:47;5.50;;;3.00;;
27566;SDS011;15006;48.584;9.186;2022-11-15T04:36:13;7.05;;;2.72;;
27566;SDS011;15006;48.584;9.186;2022-11-15T04:38:58;4.05;;;3.70;;
27566;SDS011;15006;48.584;9.186;2022-11-15T04:41:24;4.32;;;3.90;;
27566;SDS011;15006;48.584;9.186;2022-11-15T04:43:50;5.78;;;5.22;;
27566;SDS011;15006;48.584;9.186;2022-11-15T04:46:16;9.50;;;6.72;;
27566;SDS011;15006;48.584;9.186;2022-11-15T04:48:42;7.63;;;7.00;;
27566;SDS011;15006;48.584;9.186;2022-11-15T04:51:08;8.60;;;6.88;;
27566;SDS011;15006;48.584;9.186;2022-11-15T04:53:34;8.25;;;6.95;;
27566;SDS011;15006;48.584;9.186;2022-11-15T04:56:00;7.57;;;6.97;;
27566;SDS011;15006;48.584;9.186;2022-11-15T04:58:27;6.22;;;5.72;;
27566;SDS011;15006;48.584;9.186;2022-11-15T05:00:52;10.88;;;7.15;;
27566;SDS011;15006;48.584;9.186;2022-11-15T05:03:18;9.98;;;7.55;;
27566;SDS011;15006;48.584;9.186;2022-11-15T05:06:03;10.90;;;6.35;;
27566;SDS011;15006;48.584;9.186;2022-11-15T05:08:29;5.80;;;5.38;;
27566;SDS011;15006;48.584;9.186;2022-11-15T05:10:55;6.07;;;5.47;;
27566;SDS011;15006;48.584;9.186;2022-11-15T05:13:21;5.60;;;4.82;;
27566;SDS011;15006;48.584;9.186;2022-11-15T05:15:47;7.43;;;6.72;;
27566;SDS011;15006;48.584;9.186;2022-11-15T05:18:13;7.18;;;6.57;;
27566;SDS011;15006;48.584;9.186;2022-11-15T05:20:39;11.30;;;6.43;;
27566;SDS011;15006;48.584;9.186;2022-11-15T05:23:05;5.20;;;4.80;;
27566;SDS011;15006;48.584;9.186;2022-11-15T05:25:31;5.75;;;4.25;;
27566;SDS011;15006;48.584;9.186;2022-11-15T05:27:57;4.82;;;4.43;;
27566;SDS011;15006;48.584;9.186;2022-11-15T05:30:23;5.68;;;5.18;;
27566;SDS011;15006;48.584;9.186;2022-11-15T05:32:49;5.95;;;5.18;;
27566;SDS011;15006;48.584;9.186;2022-11-15T05:35:20;4.68;;;4.32;;
27566;SDS011;15006;48.584;9.186;2022-11-15T05:37:57;5.90;;;4.13;;
27566;SDS011;15006;48.584;9.186;2022-11-15T05:40:23;7.30;;;6.32;;
27566;SDS011;15006;48.584;9.186;2022-11-15T05:42:49;5.57;;;4.78;;
27566;SDS011;15006;48.584;9.186;2022-11-15T05:45:15;5.55;;;4.88;;
27566;SDS011;15006;48.584;9.186;2022-11-15T05:47:41;4.93;;;4.63;;
27566;SDS011;15006;48.584;9.186;2022-11-15T05:50:10;4.78;;;4.35;;
27566;SDS011;15006;48.584;9.186;2022-11-15T05:52:39;5.55;;;5.10;;
27566;SDS011;15006;48.584;9.186;2022-11-15T05:55:05;5.90;;;5.38;;
27566;SDS011;15006;48.584;9.186;2022-11-15T05:57:32;5.28;;;4.88;;
27566;SDS011;15006;48.584;9.186;2022-11-15T05:59:58;6.07;;;4.78;;
27566;SDS011;15006;48.584;9.186;2022-11-15T06:02:24;7.05;;;4.68;;
27566;SDS011;15006;48.584;9.186;2022-11-15T06:04:50;11.95;;;8.45;;
27566;SDS011;15006;48.584;9.186;2022-11-15T06:07:16;11.40;;;8.30;;
27566;SDS011;15006;48.584;9.186;2022-11-15T06:09:42;19.50;;;12.23;;
27566;SDS011;15006;48.584;9.186;2022-11-15T06:12:08;20.98;;;13.05;;
27566;SDS011;15006;48.584;9.186;2022-11-15T06:14:34;29.15;;;17.42;;
27566;SDS011;15006;48.584;9.186;2022-11-15T06:17:00;30.55;;;16.70;;
27566;SDS011;15006;48.584;9.186;2022-11-15T06:19:27;20.73;;;12.95;;
27566;SDS011;15006;48.584;9.186;2022-11-15T06:22:01;24.03;;;15.07;;
27566;SDS011;15006;48.584;9.186;2022-11-15T06:24:27;22.83;;;14.10;;
27566;SDS011;15006;48.584;9.186;2022-11-15T06:26:53;23.33;;;15.80;;
27566;SDS011;15006;48.584;9.186;2022-11-15T06:29:19;22.92;;;14.57;;
27566;SDS011;15006;48.584;9.186;2022-11-15T06:31:45;20.52;;;14.45;;
27566;SDS011;15006;48.584;9.186;2022-11-15T06:34:11;23.00;;;15.45;;
27566;SDS011;15006;48.584;9.186;2022-11-15T06:36:37;16.83;;;12.40;;
27566;SDS011;15006;48.584;9.186;2022-11-15T06:39:04;26.23;;;16.23;;
27566;SDS011;15006;48.584;9.186;2022-11-15T06:41:33;26.85;;;15.88;;
27566;SDS011;15006;48.584;9.186;2022-11-15T06:44:00;37.58;;;20.05;;
27566;SDS011;15006;48.584;9.186;2022-11-15T06:46:29;49.20;;;26.13;;
27566;SDS011;15006;48.584;9.186;2022-11-15T06:48:55;47.45;;;26.10;;
27566;SDS011;15006;48.584;9.186;2022-11-15T06:51:21;43.83;;;27.42;;
27566;SDS011;15006;48.584;9.186;2022-11-15T06:53:47;43.42;;;25.95;;
27566;SDS011;15006;48.584;9.186;2022-11-15T06:56:13;36.15;;;23.48;;
27566;SDS011;15006;48.584;9.186;2022-11-15T06:58:39;45.42;;;26.55;;
27566;SDS011;15006;48.584;9.186;2022-11-15T07:01:06;39.53;;;25.50;;
27566;SDS011;15006;48.584;9.186;2022-11-15T07:03:36;119.72;;;53.80;;
27566;SDS011;15006;48.584;9.186;2022-11-15T07:06:04;209.05;;;88.68;;
27566;SDS011;15006;48.584;9.186;2022-11-15T07:08:30;212.90;;;94.47;;
27566;SDS011;15006;48.584;9.186;2022-11-15T07:11:01;189.80;;;83.40;;
27566;SDS011;15006;48.584;9.186;2022-11-15T07:13:32;145.80;;;67.25;;
27566;SDS011;15006;48.584;9.186;2022-11-15T07:16:03;130.80;;;61.50;;
27566;SDS011;15006;48.584;9.186;2022-11-15T07:18:33;114.22;;;55.72;;
27566;SDS011;15006;48.584;9.186;2022-11-15T07:21:05;99.97;;;48.53;;
27566;SDS011;15006;48.584;9.186;2022-11-15T07:23:35;92.13;;;44.88;;
27566;SDS011;15006;48.584;9.186;2022-11-15T07:26:03;71.45;;;37.15;;
27566;SDS011;15006;48.584;9.186;2022-11-15T07:28:30;70.50;;;35.72;;
27566;SDS011;15006;48.584;9.186;2022-11-15T07:30:56;76.05;;;37.97;;
27566;SDS011;15006;48.584;9.186;2022-11-15T07:33:22;72.00;;;35.83;;
27566;SDS011;15006;48.584;9.186;2022-11-15T07:35:48;77.25;;;38.65;;
27566;SDS011;15006;48.584;9.186;2022-11-15T07:38:14;64.18;;;33.17;;
27566;SDS011;15006;48.584;9.186;2022-11-15T07:40:44;60.13;;;32.00;;
27566;SDS011;15006;48.584;9.186;2022-11-15T07:43:11;49.53;;;27.48;;
27566;SDS011;15006;48.584;9.186;2022-11-15T07:45:41;44.65;;;26.48;;
27566;SDS011;15006;48.584;9.186;2022-11-15T07:48:09;42.25;;;24.73;;
27566;SDS011;15006;48.584;9.186;2022-11-15T07:50:35;41.08;;;24.48;;
27566;SDS011;15006;48.584;9.186;2022-11-15T07:53:01;30.15;;;18.63;;
27566;SDS011;15006;48.584;9.186;2022-11-15T07:55:27;36.10;;;19.00;;
27566;SDS011;15006;48.584;9.186;2022-11-15T07:58:04;37.97;;;24.42;;
27566;SDS011;15006;48.584;9.186;2022-11-15T08:00:36;35.08;;;22.05;;
27566;SDS011;15006;48.584;9.186;2022-11-15T08:03:03;31.77;;;19.15;;
27566;SDS011;15006;48.584;9.186;2022-11-15T08:05:37;28.92;;;20.02;;
27566;SDS011;15006;48.584;9.186;2022-11-15T08:08:04;30.50;;;18.83;;
27566;SDS011;15006;48.584;9.186;2022-11-15T08:10:33;22.70;;;16.80;;
27566;SDS011;15006;48.584;9.186;2022-11-15T08:13:03;20.33;;;14.52;;
27566;SDS011;15006;48.584;9.186;2022-11-15T08:15:32;17.98;;;12.52;;
27566;SDS011;15006;48.584;9.186;2022-11-15T08:18:00;16.00;;;12.85;;
27566;SDS011;15006;48.584;9.186;2022-11-15T08:20:45;20.38;;;14.65;;
27566;SDS011;15006;48.584;9.186;2022-11-15T08:23:11;17.80;;;12.98;;
27566;SDS011;15006;48.584;9.186;2022-11-15T08:25:38;19.65;;;12.75;;
27566;SDS011;15006;48.584;9.186;2022-11-15T08:28:06;15.77;;;12.13;;
27566;SDS011;15006;48.584;9.186;2022-11-15T08:30:34;14.70;;;12.05;;
27566;SDS011;15006;48.584;9.186;2022-11-15T08:33:02;21.20;;;12.45;;
27566;SDS011;15006;48.584;9.186;2022-11-15T08:35:29;13.00;;;11.32;;
27566;SDS011;15006;48.584;9.186;2022-11-15T08:37:56;9.32;;;7.85;;
27566;SDS011;15006;48.584;9.186;2022-11-15T08:40:21;10.55;;;7.78;;
27566;SDS011;15006;48.584;9.186;2022-11-15T08:42:48;10.77;;;7.18;;
27566;SDS011;15006;48.584;9.186;2022-11-15T08:45:14;12.50;;;8.25;;
27566;SDS011;15006;48.584;9.186;2022-11-15T08:47:40;13.30;;;8.07;;
27566;SDS011;15006;48.584;9.186;2022-11-15T08:50:06;6.30;;;5.63;;
27566;SDS011;15006;48.584;9.186;2022-11-15T08:52:33;11.70;;;6.53;;
27566;SDS011;15006;48.584;9.186;2022-11-15T08:54:59;16.55;;;7.15;;
27566;SDS011;15006;48.584;9.186;2022-11-15T08:57:27;10.25;;;6.68;;
27566;SDS011;15006;48.584;9.186;2022-11-15T08:59:55;9.70;;;6.65;;
27566;SDS011;15006;48.584;9.186;2022-11-15T09:02:22;6.20;;;5.60;;
27566;SDS011;15006;48.584;9.186;2022-11-15T09:04:48;8.07;;;5.70;;
27566;SDS011;15006;48.584;9.186;2022-11-15T09:07:14;6.78;;;6.07;;
27566;SDS011;15006;48.584;9.186;2022-11-15T09:09:40;8.02;;;4.22;;
27566;SDS011;15006;48.584;9.186;2022-11-15T09:12:07;4.90;;;3.85;;
27566;SDS011;15006;48.584;9.186;2022-11-15T09:14:34;4.35;;;3.95;;
27566;SDS011;15006;48.584;9.186;2022-11-15T09:17:00;4.40;;;4.00;;
27566;SDS011;15006;48.584;9.186;2022-11-15T09:19:27;3.70;;;3.40;;
27566;SDS011;15006;48.584;9.186;2022-11-15T09:21:53;3.85;;;3.55;;
27566;SDS011;15006;48.584;9.186;2022-11-15T09:24:19;3.72;;;3.42;;
27566;SDS011;15006;48.584;9.186;2022-11-15T09:26:46;3.70;;;3.42;;
27566;SDS011;15006;48.584;9.186;2022-11-15T09:29:13;4.80;;;3.97;;
27566;SDS011;15006;48.584;9.186;2022-11-15T09:31:39;4.97;;;4.20;;
27566;SDS011;15006;48.584;9.186;2022-11-15T09:34:05;10.40;;;4.63;;
27566;SDS011;15006;48.584;9.186;2022-11-15T09:36:31;4.82;;;4.35;;
27566;SDS011;15006;48.584;9.186;2022-11-15T09:38:57;5.35;;;4.95;;
27566;SDS011;15006;48.584;9.186;2022-11-15T09:41:26;7.07;;;4.30;;
27566;SDS011;15006;48.584;9.186;2022-11-15T09:50:41;3.50;;;3.30;;
27566;SDS011;15006;48.584;9.186;2022-11-15T09:56:14;5.30;;;4.15;;
27566;SDS011;15006;48.584;9.186;2022-11-15T09:59:08;4.00;;;3.50;;
27566;SDS011;15006;48.584;9.186;2022-11-15T10:02:12;3.95;;;3.40;;
27566;SDS011;15006;48.584;9.186;2022-11-15T10:05:12;4.13;;;3.83;;
27566;SDS011;15006;48.584;9.186;2022-11-15T10:07:50;3.95;;;2.90;;
27566;SDS011;15006;48.584;9.186;2022-11-15T10:10:53;3.17;;;2.80;;
27566;SDS011;15006;48.584;9.186;2022-11-15T10:13:30;3.35;;;3.05;;
27566;SDS011;15006;48.584;9.186;2022-11-15T10:27:56;4.57;;;3.80;;
27566;SDS011;15006;48.584;9.186;2022-11-15T10:30:38;4.05;;;3.67;;
27566;SDS011;15006;48.584;9.186;2022-11-15T10:33:16;4.22;;;3.85;;
27566;SDS011;15006;48.584;9.186;2022-11-15T10:39:00;4.57;;;4.28;;
27566;SDS011;15006;48.584;9.186;2022-11-15T10:44:17;7.30;;;2.97;;
27566;SDS011;15006;48.584;9.186;2022-11-15T10:49:21;3.83;;;3.63;;
27566;SDS011;15006;48.584;9.186;2022-11-15T10:51:54;6.95;;;3.80;;
27566;SDS011;15006;48.584;9.186;2022-11-15T10:54:53;3.90;;;3.65;;
27566;SDS011;15006;48.584;9.186;2022-11-15T10:57:52;3.10;;;2.80;;
27566;SDS011;15006;48.584;9.186;2022-11-15T11:00:31;3.15;;;2.95;;
27566;SDS011;15006;48.584;9.186;2022-11-15T11:03:02;6.07;;;3.22;;
27566;SDS011;15006;48.584;9.186;2022-11-15T11:06:04;5.63;;;3.72;;
27566;SDS011;15006;48.584;9.186;2022-11-15T11:08:37;4.57;;;3.72;;
27566;SDS011;15006;48.584;9.186;2022-11-15T11:11:04;3.90;;;3.20;;
27566;SDS011;15006;48.584;9.186;2022-11-15T11:13:36;4.63;;;3.20;;
27566;SDS011;15006;48.584;9.186;2022-11-15T11:16:19;3.17;;;2.75;;
27566;SDS011;15006;48.584;9.186;2022-11-15T11:19:02;3.67;;;3.20;;
27566;SDS011;15006;48.584;9.186;2022-11-15T11:27:57;3.95;;;3.53;;
27566;SDS011;15006;48.584;9.186;2022-11-15T11:33:50;4.32;;;3.92;;
27566;SDS011;15006;48.584;9.186;2022-11-15T11:42:25;5.20;;;4.80;;
27566;SDS011;15006;48.584;9.186;2022-11-15T11:54:35;4.82;;;4.00;;
27566;SDS011;15006;48.584;9.186;2022-11-15T11:57:23;4.47;;;3.70;;
27566;SDS011;15006;48.584;9.186;2022-11-15T12:02:41;9.00;;;5.17;;
27566;SDS011;15006;48.584;9.186;2022-11-15T12:07:59;5.90;;;5.40;;
27566;SDS011;15006;48.584;9.186;2022-11-15T12:10:35;5.20;;;4.78;;
27566;SDS011;15006;48.584;9.186;2022-11-15T12:13:10;4.75;;;4.20;;
27566;SDS011;15006;48.584;9.186;2022-11-15T12:15:43;4.40;;;4.00;;
27566;SDS011;15006;48.584;9.186;2022-11-15T12:18:22;5.68;;;4.22;;
27566;SDS011;15006;48.584;9.186;2022-11-15T12:20:52;4.15;;;3.50;;
27566;SDS011;15006;48.584;9.186;2022-11-15T12:23:27;3.90;;;3.70;;
27566;SDS011;15006;48.584;9.186;2022-11-15T12:26:00;4.22;;;3.88;;
27566;SDS011;15006;48.584;9.186;2022-11-15T12:28:38;4.50;;;4.20;;
27566;SDS011;15006;48.584;9.186;2022-11-15T12:31:21;4.30;;;3.90;;
27566;SDS011;15006;48.584;9.186;2022-11-15T12:34:01;4.78;;;4.38;;
27566;SDS011;15006;48.584;9.186;2022-11-15T12:36:47;9.23;;;4.65;;
27566;SDS011;15006;48.584;9.186;2022-11-15T12:39:15;5.28;;;3.95;;
27566;SDS011;15006;48.584;9.186;2022-11-15T12:41:44;4.10;;;3.35;;
27566;SDS011;15006;48.584;9.186;2022-11-15T12:59:51;2.97;;;2.78;;
27566;SDS011;15006;48.584;9.186;2022-11-15T13:02:41;3.63;;;2.53;;
27566;SDS011;15006;48.584;9.186;2022-11-15T13:12:53;2.47;;;2.28;;
27566;SDS011;15006;48.584;9.186;2022-11-15T13:17:56;2.15;;;2.05;;
27566;SDS011;15006;48.584;9.186;2022-11-15T13:20:27;2.42;;;2.22;;
27566;SDS011;15006;48.584;9.186;2022-11-15T13:28:47;2.53;;;2.10;;
27566;SDS011;15006;48.584;9.186;2022-11-15T13:33:43;2.40;;;2.30;;
27566;SDS011;15006;48.584;9.186;2022-11-15T13:36:14;2.25;;;2.13;;
27566;SDS011;15006;48.584;9.186;2022-11-15T13:38:53;3.97;;;2.17;;
27566;SDS011;15006;48.584;9.186;2022-11-15T13:41:50;3.78;;;2.10;;
27566;SDS011;15006;48.584;9.186;2022-11-15T13:44:25;2.22;;;2.13;;
27566;SDS011;15006;48.584;9.186;2022-11-15T13:49:40;2.25;;;2.15;;
27566;SDS011;15006;48.584;9.186;2022-11-15T13:52:07;2.50;;;2.28;;
27566;SDS011;15006;48.584;9.186;2022-11-15T13:54:43;4.93;;;2.75;;
27566;SDS011;15006;48.584;9.186;2022-11-15T14:03:21;4.20;;;3.78;;
27566;SDS011;15006;48.584;9.186;2022-11-15T14:06:10;4.93;;;4.43;;
27566;SDS011;15006;48.584;9.186;2022-11-15T14:09:00;5.43;;;4.13;;
27566;SDS011;15006;48.584;9.186;2022-11-15T14:11:34;5.60;;;5.18;;
27566;SDS011;15006;48.584;9.186;2022-11-15T14:16:45;7.28;;;6.30;;
27566;SDS011;15006;48.584;9.186;2022-11-15T14:24:46;4.85;;;4.45;;
27566;SDS011;15006;48.584;9.186;2022-11-15T14:30:55;6.40;;;5.28;;
27566;SDS011;15006;48.584;9.186;2022-11-15T14:36:04;4.72;;;4.32;;
27566;SDS011;15006;48.584;9.186;2022-11-15T14:38:43;6.05;;;4.68;;
27566;SDS011;15006;48.584;9.186;2022-11-15T14:41:34;3.85;;;3.60;;
27566;SDS011;15006;48.584;9.186;2022-11-15T14:44:03;7.15;;;4.80;;
27566;SDS011;15006;48.584;9.186;2022-11-15T14:46:31;4.85;;;4.45;;
27566;SDS011;15006;48.584;9.186;2022-11-15T14:48:57;7.85;;;4.82;;
27566;SDS011;15006;48.584;9.186;2022-11-15T14:51:23;6.45;;;4.50;;
27566;SDS011;15006;48.584;9.186;2022-11-15T14:53:51;5.03;;;4.53;;
27566;SDS011;15006;48.584;9.186;2022-11-15T14:56:17;4.65;;;4.30;;
27566;SDS011;15006;48.584;9.186;2022-11-15T14:58:43;5.07;;;4.47;;
27566;SDS011;15006;48.584;9.186;2022-11-15T15:01:27;5.65;;;4.30;;
27566;SDS011;15006;48.584;9.186;2022-11-15T15:03:53;4.18;;;3.88;;
27566;SDS011;15006;48.584;9.186;2022-11-15T15:06:23;4.65;;;4.25;;
27566;SDS011;15006;48.584;9.186;2022-11-15T15:08:50;5.70;;;4.53;;
27566;SDS011;15006;48.584;9.186;2022-11-15T15:11:19;4.72;;;4.40;;
27566;SDS011;15006;48.584;9.186;2022-11-15T15:13:48;5.25;;;4.85;;
27566;SDS011;15006;48.584;9.186;2022-11-15T15:16:15;8.57;;;4.35;;
27566;SDS011;15006;48.584;9.186;2022-11-15T15:18:41;4.63;;;4.32;;
27566;SDS011;15006;48.584;9.186;2022-11-15T15:23:50;4.65;;;4.35;;
27566;SDS011;15006;48.584;9.186;2022-11-15T15:26:19;5.45;;;5.05;;
27566;SDS011;15006;48.584;9.186;2022-11-15T15:28:46;5.10;;;4.80;;
27566;SDS011;15006;48.584;9.186;2022-11-15T15:31:13;5.55;;;5.07;;
27566;SDS011;15006;48.584;9.186;2022-11-15T15:33:40;5.00;;;4.70;;
27566;SDS011;15006;48.584;9.186;2022-11-15T15:36:13;5.07;;;4.78;;
27566;SDS011;15006;48.584;9.186;2022-11-15T15:38:42;5.53;;;5.13;;
27566;SDS011;15006;48.584;9.186;2022-11-15T15:41:12;5.88;;;5.47;;
27566;SDS011;15006;48.584;9.186;2022-11-15T15:43:40;5.65;;;5.15;;
27566;SDS011;15006;48.584;9.186;2022-11-15T15:46:16;6.55;;;5.90;;
27566;SDS011;15006;48.584;9.186;2022-11-15T15:48:44;5.63;;;5.20;;
27566;SDS011;15006;48.584;9.186;2022-11-15T15:51:10;5.57;;;5.18;;
27566;SDS011;15006;48.584;9.186;2022-11-15T15:53:37;6.80;;;5.75;;
27566;SDS011;15006;48.584;9.186;2022-11-15T15:56:04;6.78;;;5.38;;
27566;SDS011;15006;48.584;9.186;2022-11-15T15:58:33;5.65;;;5.25;;
27566;SDS011;15006;48.584;9.186;2022-11-15T16:01:00;7.60;;;6.47;;
27566;SDS011;15006;48.584;9.186;2022-11-15T16:03:26;6.93;;;6.43;;
27566;SDS011;15006;48.584;9.186;2022-11-15T16:05:53;7.45;;;6.75;;
27566;SDS011;15006;48.584;9.186;2022-11-15T16:08:22;7.43;;;6.82;;
27566;SDS011;15006;48.584;9.186;2022-11-15T16:10:51;8.52;;;7.10;;
27566;SDS011;15006;48.584;9.186;2022-11-15T16:13:17;11.93;;;6.95;;
27566;SDS011;15006;48.584;9.186;2022-11-15T16:15:44;8.10;;;7.38;;
27566;SDS011;15006;48.584;9.186;2022-11-15T16:18:14;8.05;;;7.30;;
27566;SDS011;15006;48.584;9.186;2022-11-15T16:20:43;13.73;;;7.65;;
27566;SDS011;15006;48.584;9.186;2022-11-15T16:23:21;8.82;;;7.68;;
27566;SDS011;15006;48.584;9.186;2022-11-15T16:28:23;12.95;;;10.25;;
27566;SDS011;15006;48.584;9.186;2022-11-15T16:33:31;11.88;;;10.48;;
27566;SDS011;15006;48.584;9.186;2022-11-15T16:35:57;10.55;;;9.43;;
27566;SDS011;15006;48.584;9.186;2022-11-15T16:38:23;14.10;;;10.25;;
27566;SDS011;15006;48.584;9.186;2022-11-15T16:40:49;17.00;;;11.65;;
27566;SDS011;15006;48.584;9.186;2022-11-15T16:43:15;18.48;;;10.95;;
27566;SDS011;15006;48.584;9.186;2022-11-15T16:45:41;15.82;;;11.73;;
27566;SDS011;15006;48.584;9.186;2022-11-15T16:48:11;14.75;;;10.88;;
27566;SDS011;15006;48.584;9.186;2022-11-15T16:50:49;12.73;;;11.43;;
27566;SDS011;15006;48.584;9.186;2022-11-15T16:53:16;32.20;;;21.48;;
27566;SDS011;15006;48.584;9.186;2022-11-15T16:55:42;34.33;;;22.10;;
27566;SDS011;15006;48.584;9.186;2022-11-15T16:58:08;32.75;;;22.35;;
27566;SDS011;15006;48.584;9.186;2022-11-15T17:00:35;27.67;;;19.02;;
27566;SDS011;15006;48.584;9.186;2022-11-15T17:03:01;31.30;;;19.58;;
27566;SDS011;15006;48.584;9.186;2022-11-15T17:05:28;32.00;;;20.20;;
27566;SDS011;15006;48.584;9.186;2022-11-15T17:07:54;41.28;;;25.48;;
27566;SDS011;15006;48.584;9.186;2022-11-15T17:10:21;33.75;;;20.33;;
27566;SDS011;15006;48.584;9.186;2022-11-15T17:12:49;31.13;;;19.85;;
27566;SDS011;15006;48.584;9.186;2022-11-15T17:15:16;47.95;;;29.05;;
27566;SDS011;15006;48.584;9.186;2022-11-15T17:17:43;57.55;;;34.13;;
27566;SDS011;15006;48.584;9.186;2022-11-15T17:20:13;60.13;;;32.10;;
27566;SDS011;15006;48.584;9.186;2022-11-15T17:22:41;54.95;;;32.88;;
27566;SDS011;15006;48.584;9.186;2022-11-15T17:25:07;59.75;;;35.17;;
27566;SDS011;15006;48.584;9.186;2022-11-15T17:27:34;53.92;;;32.08;;
27566;SDS011;15006;48.584;9.186;2022-11-15T17:30:01;42.58;;;28.23;;
27566;SDS011;15006;48.584;9.186;2022-11-15T17:32:27;39.25;;;25.20;;
27566;SDS011;15006;48.584;9.186;2022-11-15T17:34:53;46.08;;;29.38;;
27566;SDS011;15006;48.584;9.186;2022-11-15T17:37:19;33.72;;;23.08;;
27566;SDS011;15006;48.584;9.186;2022-11-15T17:39:45;38.25;;;24.48;;
27566;SDS011;15006;48.584;9.186;2022-11-15T17:42:11;37.95;;;25.08;;
27566;SDS011;15006;48.584;9.186;2022-11-15T17:44:37;35.00;;;21.75;;
27566;SDS011;15006;48.584;9.186;2022-11-15T17:47:03;35.85;;;21.40;;
27566;SDS011;15006;48.584;9.186;2022-11-15T17:49:29;38.95;;;23.85;;